createdAt,value
2023-05-02T00:00:12.266Z,30.7
2023-05-02T00:01:13.963Z,30.7
2023-05-02T00:02:15.930Z,30.7
2023-05-02T00:03:18.703Z,30.7
2023-05-02T00:04:21.273Z,30.7
2023-05-02T00:05:23.316Z,30.7
2023-05-02T00:06:25.398Z,30.7
2023-05-02T00:07:27.533Z,30.7
2023-05-02T00:08:29.319Z,30.7
2023-05-02T00:09:31.014Z,30.7
2023-05-02T00:10:32.991Z,30.7
2023-05-02T00:11:34.569Z,30.7
2023-05-02T00:12:36.370Z,30.7
2023-05-02T00:13:38.158Z,30.7
2023-05-02T00:14:39.848Z,30.7
2023-05-02T00:15:41.737Z,30.7
2023-05-02T00:16:43.478Z,30.7
2023-05-02T00:17:45.657Z,30.8
2023-05-02T00:18:47.509Z,30.8
2023-05-02T00:19:49.316Z,30.8
2023-05-02T00:20:51.261Z,30.8
2023-05-02T00:21:53.106Z,30.8
2023-05-02T00:22:54.963Z,30.8
2023-05-02T00:23:56.781Z,30.8
2023-05-02T00:24:58.642Z,30.8
2023-05-02T00:26:00.465Z,30.8
2023-05-02T00:27:02.167Z,30.8
2023-05-02T00:28:04.004Z,30.8
2023-05-02T00:29:05.860Z,30.8
2023-05-02T00:30:07.671Z,30.8
2023-05-02T00:31:09.507Z,30.8
2023-05-02T00:32:11.407Z,30.8
2023-05-02T00:33:13.691Z,30.8
2023-05-02T00:34:15.817Z,30.8
2023-05-02T00:35:17.768Z,30.8
2023-05-02T00:36:19.732Z,30.8
2023-05-02T00:37:21.573Z,30.8
2023-05-02T00:38:23.433Z,30.8
2023-05-02T00:39:25.229Z,30.8
2023-05-02T00:40:27.137Z,30.8
2023-05-02T00:41:28.974Z,30.8
2023-05-02T00:42:30.629Z,30.8
2023-05-02T00:43:32.372Z,30.8
2023-05-02T00:44:34.168Z,30.8
2023-05-02T00:45:35.754Z,30.8
2023-05-02T00:46:37.539Z,30.8
2023-05-02T00:47:39.576Z,30.8
2023-05-02T00:48:41.524Z,30.8
2023-05-02T00:49:43.333Z,30.8
2023-05-02T00:50:44.958Z,30.8
2023-05-02T00:51:46.762Z,30.8
2023-05-02T00:52:48.410Z,30.8
2023-05-02T00:53:50.245Z,30.9
2023-05-02T00:54:52.024Z,30.9
2023-05-02T00:55:53.648Z,30.9
2023-05-02T00:56:55.296Z,30.9
2023-05-02T00:57:56.974Z,30.9
2023-05-02T00:58:59.008Z,30.9
2023-05-02T01:00:01.378Z,30.9
2023-05-02T01:01:04.038Z,30.9
2023-05-02T01:02:06.208Z,30.9
2023-05-02T01:03:08.396Z,30.9
2023-05-02T01:04:10.592Z,30.9
2023-05-02T01:05:12.966Z,30.9
2023-05-02T01:06:14.920Z,30.9
2023-05-02T01:07:16.768Z,30.9
2023-05-02T01:08:18.618Z,30.9
2023-05-02T01:09:20.568Z,30.9
2023-05-02T01:10:22.545Z,31
2023-05-02T01:11:24.373Z,31
2023-05-02T01:12:26.339Z,31
2023-05-02T01:13:28.182Z,31
2023-05-02T01:14:30.123Z,31
2023-05-02T01:15:32.086Z,31
2023-05-02T01:16:34.076Z,31
2023-05-02T01:17:36.169Z,31.1
2023-05-02T01:18:37.825Z,31.1
2023-05-02T01:19:39.446Z,31.1
2023-05-02T01:20:41.333Z,31.1
2023-05-02T01:21:43.282Z,31.1
2023-05-02T01:22:45.122Z,31.1
2023-05-02T01:23:46.986Z,31.1
2023-05-02T01:24:48.920Z,31.1
2023-05-02T01:25:50.681Z,31.1
2023-05-02T01:26:55.084Z,31.2
2023-05-02T01:27:56.954Z,31.2
2023-05-02T01:28:58.794Z,31.2
2023-05-02T01:30:01.186Z,31.2
2023-05-02T01:31:04.016Z,31.2
2023-05-02T01:32:06.211Z,31.2
2023-05-02T01:33:08.471Z,31.2
2023-05-02T01:34:10.404Z,31.2
2023-05-02T01:35:12.232Z,31.2
2023-05-02T01:36:14.084Z,31.3
2023-05-02T01:37:15.882Z,31.3
2023-05-02T01:38:20.355Z,31.3
2023-05-02T01:39:22.121Z,31.3
2023-05-02T01:40:23.928Z,31.3
2023-05-02T01:41:25.730Z,31.3
2023-05-02T01:42:27.445Z,31.3
2023-05-02T01:43:29.393Z,31.4
2023-05-02T01:44:30.962Z,31.3
2023-05-02T01:45:32.592Z,31.4
2023-05-02T01:46:34.561Z,31.4
2023-05-02T01:47:36.715Z,31.4
2023-05-02T01:48:38.753Z,31.4
2023-05-02T01:49:40.702Z,31.4
2023-05-02T01:50:42.657Z,31.4
2023-05-02T01:51:44.268Z,31.4
2023-05-02T01:52:45.887Z,31.4
2023-05-02T01:53:47.539Z,31.4
2023-05-02T01:54:49.118Z,31.4
2023-05-02T01:55:51.095Z,31.4
2023-05-02T01:56:52.941Z,31.4
2023-05-02T01:57:54.796Z,31.4
2023-05-02T01:58:56.581Z,31.4
2023-05-02T01:59:59.070Z,31.4
2023-05-02T02:01:02.107Z,31.4
2023-05-02T02:02:04.244Z,31.4
2023-05-02T02:03:06.177Z,31.4
2023-05-02T02:04:08.159Z,31.4
2023-05-02T02:05:10.162Z,31.4
2023-05-02T02:06:12.203Z,31.4
2023-05-02T02:07:14.317Z,31.4
2023-05-02T02:08:15.961Z,31.4
2023-05-02T02:09:17.604Z,31.4
2023-05-02T02:10:19.405Z,31.4
2023-05-02T02:11:20.986Z,31.4
2023-05-02T02:12:22.672Z,31.5
2023-05-02T02:13:24.388Z,31.4
2023-05-02T02:14:26.267Z,31.5
2023-05-02T02:15:28.085Z,31.5
2023-05-02T02:16:30.159Z,31.5
2023-05-02T02:17:32.088Z,31.5
2023-05-02T02:18:34.146Z,31.5
2023-05-02T02:19:36.016Z,31.5
2023-05-02T02:20:37.610Z,31.5
2023-05-02T02:21:39.282Z,31.5
2023-05-02T02:22:41.082Z,31.5
2023-05-02T02:23:42.791Z,31.5
2023-05-02T02:24:44.631Z,31.5
2023-05-02T02:25:46.491Z,31.5
2023-05-02T02:26:48.426Z,31.5
2023-05-02T02:27:50.101Z,31.6
2023-05-02T02:28:51.686Z,31.6
2023-05-02T02:29:53.601Z,31.6
2023-05-02T02:30:55.578Z,31.6
2023-05-02T02:31:57.568Z,31.6
2023-05-02T02:32:59.442Z,31.6
2023-05-02T02:34:01.488Z,31.6
2023-05-02T02:35:03.327Z,31.6
2023-05-02T02:36:05.087Z,31.6
2023-05-02T02:37:06.937Z,31.6
2023-05-02T02:38:08.792Z,31.6
2023-05-02T02:39:10.410Z,31.6
2023-05-02T02:40:11.979Z,31.6
2023-05-02T02:41:13.807Z,31.6
2023-05-02T02:42:15.655Z,31.6
2023-05-02T02:43:17.506Z,31.6
2023-05-02T02:44:19.257Z,31.6
2023-05-02T02:45:21.016Z,31.6
2023-05-02T02:46:22.769Z,31.6
2023-05-02T02:47:24.608Z,31.6
2023-05-02T02:48:26.558Z,31.6
2023-05-02T02:49:28.433Z,31.6
2023-05-02T02:50:30.134Z,31.7
2023-05-02T02:51:32.101Z,31.7
2023-05-02T02:52:33.871Z,31.6
2023-05-02T02:53:35.798Z,31.7
2023-05-02T02:54:37.732Z,31.7
2023-05-02T02:55:39.379Z,31.7
2023-05-02T02:56:41.017Z,31.6
2023-05-02T02:57:42.597Z,31.6
2023-05-02T02:58:44.253Z,31.6
2023-05-02T02:59:45.996Z,31.6
2023-05-02T03:00:47.732Z,31.6
2023-05-02T03:01:49.513Z,31.6
2023-05-02T03:02:51.656Z,31.6
2023-05-02T03:03:53.823Z,31.6
2023-05-02T03:04:55.753Z,31.6
2023-05-02T03:05:57.592Z,31.6
2023-05-02T03:06:59.451Z,31.6
2023-05-02T03:08:01.104Z,31.6
2023-05-02T03:09:02.848Z,31.6
2023-05-02T03:10:04.543Z,31.6
2023-05-02T03:11:06.436Z,31.7
2023-05-02T03:12:08.300Z,31.7
2023-05-02T03:13:10.027Z,31.7
2023-05-02T03:14:11.725Z,31.6
2023-05-02T03:15:13.539Z,31.6
2023-05-02T03:16:15.499Z,31.6
2023-05-02T03:17:17.221Z,31.6
2023-05-02T03:18:19.223Z,31.6
2023-05-02T03:19:21.160Z,31.6
2023-05-02T03:20:22.954Z,31.6
2023-05-02T03:21:24.537Z,31.7
2023-05-02T03:22:26.096Z,31.6
2023-05-02T03:23:27.820Z,31.6
2023-05-02T03:24:29.572Z,31.6
2023-05-02T03:25:31.532Z,31.6
2023-05-02T03:26:33.359Z,31.6
2023-05-02T03:27:35.153Z,31.6
2023-05-02T03:28:36.973Z,31.6
2023-05-02T03:29:38.760Z,31.6
2023-05-02T03:30:40.558Z,31.6
2023-05-02T03:31:42.850Z,31.6
2023-05-02T03:32:45.055Z,31.6
2023-05-02T03:33:46.942Z,31.6
2023-05-02T03:34:48.786Z,31.6
2023-05-02T03:35:50.520Z,31.6
2023-05-02T03:36:52.390Z,31.6
2023-05-02T03:37:54.235Z,31.6
2023-05-02T03:38:56.074Z,31.6
2023-05-02T03:39:58.370Z,31.6
2023-05-02T03:41:00.908Z,31.7
2023-05-02T03:42:02.760Z,31.7
2023-05-02T03:43:04.611Z,31.7
2023-05-02T03:44:06.567Z,31.7
2023-05-02T03:45:08.528Z,31.7
2023-05-02T03:46:10.362Z,31.7
2023-05-02T03:47:12.369Z,31.7
2023-05-02T03:48:14.927Z,31.7
2023-05-02T03:49:16.727Z,31.6
2023-05-02T03:50:18.580Z,31.8
2023-05-02T03:51:20.521Z,31.8
2023-05-02T03:52:22.391Z,31.9
2023-05-02T03:53:24.237Z,31.8
2023-05-02T03:54:26.096Z,31.8
2023-05-02T03:55:27.737Z,31.9
2023-05-02T03:56:32.557Z,31.8
2023-05-02T03:57:34.430Z,31.8
2023-05-02T03:58:36.368Z,31.9
2023-05-02T03:59:38.103Z,31.8
2023-05-02T04:00:39.812Z,31.9
2023-05-02T04:01:41.729Z,31.8
2023-05-02T04:02:44.042Z,31.9
2023-05-02T04:03:46.508Z,31.8
2023-05-02T04:04:49.015Z,31.7
2023-05-02T04:05:50.942Z,31.8
2023-05-02T04:06:52.795Z,31.7
2023-05-02T04:07:54.754Z,31.7
2023-05-02T04:08:56.599Z,31.7
2023-05-02T04:09:59.133Z,31.6
2023-05-02T04:11:02.058Z,31.5
2023-05-02T04:12:03.979Z,31.6
2023-05-02T04:13:05.945Z,31.6
2023-05-02T04:14:07.872Z,31.7
2023-05-02T04:15:09.540Z,31.6
2023-05-02T04:16:11.390Z,31.6
2023-05-02T04:17:13.662Z,31.8
2023-05-02T04:18:15.850Z,31.7
2023-05-02T04:19:18.167Z,31.7
2023-05-02T04:20:19.903Z,31.7
2023-05-02T04:21:21.775Z,31.7
2023-05-02T04:22:23.716Z,31.7
2023-05-02T04:23:25.567Z,31.7
2023-05-02T04:24:27.521Z,31.6
2023-05-02T04:25:29.360Z,31.5
2023-05-02T04:26:31.213Z,31.5
2023-05-02T04:27:33.073Z,31.5
2023-05-02T04:28:34.926Z,31.5
2023-05-02T04:29:36.766Z,31.4
2023-05-02T04:30:38.738Z,31.2
2023-05-02T04:31:40.717Z,31.1
2023-05-02T04:32:42.558Z,31
2023-05-02T04:33:44.499Z,30.9
2023-05-02T04:34:46.314Z,30.9
2023-05-02T04:35:48.077Z,30.9
2023-05-02T04:36:49.927Z,30.8
2023-05-02T04:37:51.677Z,30.8
2023-05-02T04:38:56.315Z,30.9
2023-05-02T04:39:58.529Z,30.9
2023-05-02T04:41:09.611Z,30.9
2023-05-02T04:42:11.651Z,30.9
2023-05-02T04:43:13.404Z,30.9
2023-05-02T04:44:15.257Z,30.9
2023-05-02T04:45:17.148Z,31
2023-05-02T04:46:19.071Z,31
2023-05-02T04:47:21.174Z,31
2023-05-02T04:48:23.479Z,31
2023-05-02T04:49:25.455Z,31
2023-05-02T04:50:27.168Z,31
2023-05-02T04:51:28.812Z,30.9
2023-05-02T04:52:30.787Z,30.9
2023-05-02T04:53:32.616Z,30.8
2023-05-02T04:54:34.580Z,30.7
2023-05-02T04:55:36.376Z,30.8
2023-05-02T04:56:38.071Z,30.8
2023-05-02T04:57:39.939Z,30.7
2023-05-02T04:58:41.863Z,30.7
2023-05-02T04:59:43.925Z,30.6
2023-05-02T05:00:45.768Z,30.6
2023-05-02T05:01:47.666Z,30.5
2023-05-02T05:02:49.923Z,30.4
2023-05-02T05:03:52.219Z,30.4
2023-05-02T05:04:54.550Z,30.3
2023-05-02T05:05:56.564Z,30.3
2023-05-02T05:06:58.680Z,30.3
2023-05-02T05:08:00.834Z,30.2
2023-05-02T05:09:02.516Z,30.1
2023-05-02T05:10:04.381Z,30.2
2023-05-02T05:11:06.225Z,30.2
2023-05-02T05:12:08.054Z,30.2
2023-05-02T05:13:10.029Z,30.1
2023-05-02T05:14:11.808Z,30.3
2023-05-02T05:15:13.733Z,30.1
2023-05-02T05:16:15.873Z,30.1
2023-05-02T05:17:17.725Z,30.2
2023-05-02T05:18:19.577Z,30.2
2023-05-02T05:19:21.437Z,30
2023-05-02T05:20:23.408Z,30.2
2023-05-02T05:21:25.123Z,29.8
2023-05-02T05:22:26.924Z,30.5
2023-05-02T05:23:28.691Z,30.4
2023-05-02T05:24:30.568Z,30.1
2023-05-02T05:25:32.220Z,29.9
2023-05-02T05:26:33.882Z,29.8
2023-05-02T05:27:35.593Z,29.8
2023-05-02T05:28:37.432Z,29.7
2023-05-02T05:29:39.330Z,29.6
2023-05-02T05:30:41.275Z,29.6
2023-05-02T05:31:43.001Z,29.5
2023-05-02T05:32:45.271Z,29.5
2023-05-02T05:33:47.457Z,29.4
2023-05-02T05:34:49.573Z,29.4
2023-05-02T05:35:51.262Z,29.4
2023-05-02T05:36:52.935Z,29.3
2023-05-02T05:37:54.513Z,29.2
2023-05-02T05:38:56.276Z,29.2
2023-05-02T05:39:58.494Z,29.3
2023-05-02T05:41:01.314Z,29.2
2023-05-02T05:42:03.120Z,29.2
2023-05-02T05:43:04.757Z,29.2
2023-05-02T05:44:06.663Z,29.3
2023-05-02T05:45:08.618Z,29.1
2023-05-02T05:46:10.575Z,29
2023-05-02T05:47:12.364Z,29
2023-05-02T05:48:14.916Z,29.1
2023-05-02T05:49:17.020Z,29
2023-05-02T05:50:18.975Z,29
2023-05-02T05:51:20.796Z,28.9
2023-05-02T05:52:22.695Z,28.7
2023-05-02T05:53:24.484Z,28.8
2023-05-02T05:54:26.138Z,28.8
2023-05-02T05:55:27.936Z,28.8
2023-05-02T05:56:29.823Z,28.9
2023-05-02T05:57:31.510Z,28.8
2023-05-02T05:58:33.233Z,28.8
2023-05-02T05:59:34.972Z,28.8
2023-05-02T06:00:36.773Z,28.8
2023-05-02T06:01:38.506Z,28.7
2023-05-02T06:02:40.388Z,28.6
2023-05-02T06:03:42.656Z,28.7
2023-05-02T06:04:44.996Z,28.7
2023-05-02T06:05:47.006Z,28.6
2023-05-02T06:06:49.281Z,28.6
2023-05-02T06:07:51.353Z,28.6
2023-05-02T06:08:53.297Z,28.5
2023-05-02T06:09:55.150Z,28.8
2023-05-02T06:10:56.985Z,28.8
2023-05-02T06:11:58.866Z,28.7
2023-05-02T06:13:00.713Z,28.6
2023-05-02T06:14:02.660Z,28.7
2023-05-02T06:15:04.360Z,28.8
2023-05-02T06:16:06.277Z,28.5
2023-05-02T06:17:08.214Z,28.4
2023-05-02T06:18:10.105Z,28.2
2023-05-02T06:19:12.117Z,28.2
2023-05-02T06:20:14.064Z,28
2023-05-02T06:21:20.119Z,28
2023-05-02T06:22:22.095Z,28.2
2023-05-02T06:23:23.955Z,28.1
2023-05-02T06:24:25.764Z,28.1
2023-05-02T06:25:27.485Z,28.1
2023-05-02T06:26:29.256Z,28.1
2023-05-02T06:27:33.881Z,28
2023-05-02T06:28:35.750Z,27.8
2023-05-02T06:29:37.438Z,27.7
2023-05-02T06:30:39.405Z,27.9
2023-05-02T06:31:41.442Z,27.9
2023-05-02T06:32:43.662Z,28
2023-05-02T06:33:45.634Z,27.8
2023-05-02T06:34:47.203Z,27.8
2023-05-02T06:35:48.887Z,27.8
2023-05-02T06:36:50.628Z,27.7
2023-05-02T06:37:52.505Z,27.6
2023-05-02T06:38:54.341Z,27.6
2023-05-02T06:39:56.071Z,27.6
2023-05-02T06:40:57.955Z,27.5
2023-05-02T06:41:59.669Z,27.5
2023-05-02T06:43:01.425Z,27.5
2023-05-02T06:44:03.224Z,27.5
2023-05-02T06:45:08.056Z,27.6
2023-05-02T06:46:09.725Z,27.5
2023-05-02T06:47:11.897Z,27.4
2023-05-02T06:48:13.968Z,27.4
2023-05-02T06:49:16.000Z,27.5
2023-05-02T06:50:17.747Z,27.5
2023-05-02T06:51:19.611Z,27.5
2023-05-02T06:52:21.335Z,27.7
2023-05-02T06:53:23.055Z,27.5
2023-05-02T06:54:24.657Z,27.5
2023-05-02T06:55:26.386Z,27.5
2023-05-02T06:56:28.237Z,27.4
2023-05-02T06:57:30.223Z,27.3
2023-05-02T06:58:32.134Z,27.2
2023-05-02T06:59:33.878Z,26.9
2023-05-02T07:00:35.736Z,27
2023-05-02T07:01:38.019Z,27
2023-05-02T07:02:40.719Z,26.9
2023-05-02T07:03:42.736Z,26.9
2023-05-02T07:04:45.071Z,26.8
2023-05-02T07:05:46.953Z,26.8
2023-05-02T07:06:48.962Z,26.7
2023-05-02T07:07:50.951Z,26.6
2023-05-02T07:08:52.921Z,26.5
2023-05-02T07:09:54.576Z,26.5
2023-05-02T07:10:56.204Z,26.4
2023-05-02T07:11:57.783Z,26.3
2023-05-02T07:12:59.377Z,26.3
2023-05-02T07:14:01.042Z,26.5
2023-05-02T07:15:02.705Z,26.6
2023-05-02T07:16:04.433Z,26.4
2023-05-02T07:17:06.418Z,26.3
2023-05-02T07:18:08.749Z,26.4
2023-05-02T07:19:10.741Z,26.5
2023-05-02T07:20:12.439Z,26.6
2023-05-02T07:21:14.273Z,26.3
2023-05-02T07:22:16.031Z,26.5
2023-05-02T07:23:17.880Z,26.6
2023-05-02T07:24:19.640Z,26.6
2023-05-02T07:25:21.259Z,26.6
2023-05-02T07:26:22.926Z,26.6
2023-05-02T07:27:24.763Z,26.5
2023-05-02T07:28:26.614Z,26.4
2023-05-02T07:29:28.293Z,26.1
2023-05-02T07:30:30.306Z,26.2
2023-05-02T07:31:32.183Z,26
2023-05-02T07:32:34.290Z,26
2023-05-02T07:33:36.471Z,25.9
2023-05-02T07:34:38.099Z,26.2
2023-05-02T07:35:39.779Z,26.2
2023-05-02T07:36:41.518Z,26.2
2023-05-02T07:37:43.395Z,26.1
2023-05-02T07:38:45.144Z,26
2023-05-02T07:39:46.930Z,25.9
2023-05-02T07:40:48.513Z,25.9
2023-05-02T07:41:50.170Z,26.1
2023-05-02T07:42:51.781Z,26.1
2023-05-02T07:43:53.533Z,26.1
2023-05-02T07:44:55.126Z,26
2023-05-02T07:45:56.871Z,25.8
2023-05-02T07:46:58.751Z,25.9
2023-05-02T07:48:00.479Z,25.9
2023-05-02T07:49:02.502Z,26
2023-05-02T07:50:04.570Z,25.9
2023-05-02T07:51:06.424Z,25.6
2023-05-02T07:52:08.038Z,25.6
2023-05-02T07:53:09.680Z,25.5
2023-05-02T07:54:11.320Z,25.5
2023-05-02T07:55:12.954Z,25.4
2023-05-02T07:56:14.723Z,25.5
2023-05-02T07:57:16.337Z,25.4
2023-05-02T07:58:18.021Z,25.6
2023-05-02T07:59:19.860Z,25.6
2023-05-02T08:00:21.650Z,25.5
2023-05-02T08:01:23.258Z,25.4
2023-05-02T08:02:25.088Z,25.3
2023-05-02T08:03:27.370Z,25.4
2023-05-02T08:04:29.981Z,25.3
2023-05-02T08:05:31.878Z,25.3
2023-05-02T08:06:33.767Z,25.3
2023-05-02T08:07:37.157Z,25.3
2023-05-02T08:08:39.198Z,25.2
2023-05-02T08:09:40.907Z,25.2
2023-05-02T08:10:42.843Z,25.2
2023-05-02T08:11:44.461Z,25.2
2023-05-02T08:12:46.103Z,25.2
2023-05-02T08:13:50.678Z,25.3
2023-05-02T08:14:52.371Z,25.4
2023-05-02T08:15:54.103Z,25.4
2023-05-02T08:16:56.011Z,25.4
2023-05-02T08:17:57.822Z,25.5
2023-05-02T08:18:59.703Z,25.5
2023-05-02T08:20:02.333Z,25.5
2023-05-02T08:21:04.690Z,25.3
2023-05-02T08:22:06.404Z,25.2
2023-05-02T08:23:08.152Z,25.1
2023-05-02T08:24:10.001Z,25.1
2023-05-02T08:25:11.741Z,25.2
2023-05-02T08:26:13.839Z,25.2
2023-05-02T08:27:15.477Z,25.3
2023-05-02T08:28:17.186Z,25.4
2023-05-02T08:29:18.795Z,25.2
2023-05-02T08:30:20.433Z,25.4
2023-05-02T08:31:22.268Z,25.4
2023-05-02T08:32:24.499Z,25.2
2023-05-02T08:33:26.373Z,25.1
2023-05-02T08:34:27.970Z,25.1
2023-05-02T08:35:29.609Z,25.2
2023-05-02T08:36:31.222Z,25.2
2023-05-02T08:37:32.941Z,25.2
2023-05-02T08:38:34.983Z,25.2
2023-05-02T08:39:36.907Z,25.2
2023-05-02T08:40:43.294Z,25.2
2023-05-02T08:41:45.303Z,25
2023-05-02T08:42:46.982Z,25.1
2023-05-02T08:43:48.646Z,25
2023-05-02T08:44:50.405Z,25.3
2023-05-02T08:45:52.028Z,25.2
2023-05-02T08:46:53.780Z,25.1
2023-05-02T08:47:55.653Z,25.1
2023-05-02T08:48:57.519Z,24.9
2023-05-02T08:49:59.441Z,25
2023-05-02T08:51:02.481Z,24.9
2023-05-02T08:52:04.064Z,24.8
2023-05-02T08:53:05.700Z,24.8
2023-05-02T08:54:07.361Z,24.8
2023-05-02T08:55:09.148Z,24.8
2023-05-02T08:56:10.824Z,24.8
2023-05-02T08:57:12.605Z,24.9
2023-05-02T08:58:17.777Z,24.8
2023-05-02T08:59:19.694Z,24.8
2023-05-02T09:00:22.473Z,24.7
2023-05-02T09:01:24.505Z,24.8
2023-05-02T09:02:26.620Z,24.8
2023-05-02T09:03:28.825Z,24.7
2023-05-02T09:04:30.697Z,24.7
2023-05-02T09:05:32.799Z,24.6
2023-05-02T09:06:35.430Z,24.5
2023-05-02T09:07:37.576Z,24.5
2023-05-02T09:08:39.475Z,24.6
2023-05-02T09:09:41.323Z,24.6
2023-05-02T09:10:43.070Z,24.6
2023-05-02T09:11:44.924Z,24.6
2023-05-02T09:12:46.841Z,24.6
2023-05-02T09:13:48.679Z,24.6
2023-05-02T09:14:50.474Z,24.7
2023-05-02T09:15:52.426Z,24.6
2023-05-02T09:16:54.523Z,24.6
2023-05-02T09:17:56.671Z,24.6
2023-05-02T09:18:58.501Z,24.4
2023-05-02T09:20:00.459Z,24.4
2023-05-02T09:21:02.133Z,24.6
2023-05-02T09:22:03.781Z,24.7
2023-05-02T09:23:05.487Z,24.6
2023-05-02T09:24:07.147Z,24.7
2023-05-02T09:25:09.107Z,24.6
2023-05-02T09:26:10.852Z,24.4
2023-05-02T09:27:12.435Z,24.5
2023-05-02T09:28:14.171Z,24.8
2023-05-02T09:29:15.773Z,24.8
2023-05-02T09:30:17.623Z,24.8
2023-05-02T09:31:55.362Z,24.5
2023-05-02T09:32:58.500Z,24.4
2023-05-02T09:34:00.475Z,24.5
2023-05-02T09:35:02.415Z,24.3
2023-05-02T09:36:04.087Z,24.3
2023-05-02T09:37:05.772Z,24.2
2023-05-02T09:38:07.534Z,24.2
2023-05-02T09:39:09.107Z,24.2
2023-05-02T09:40:10.734Z,24.2
2023-05-02T09:41:12.378Z,24.2
2023-05-02T09:42:14.225Z,24.2
2023-05-02T09:43:15.860Z,24.3
2023-05-02T09:44:17.487Z,24.1
2023-05-02T09:45:19.100Z,24.1
2023-05-02T09:46:20.842Z,24.2
2023-05-02T09:47:22.690Z,24.1
2023-05-02T09:48:24.319Z,24.1
2023-05-02T09:49:25.971Z,24.2
2023-05-02T09:50:27.594Z,24.5
2023-05-02T09:51:29.194Z,24.3
2023-05-02T09:52:30.825Z,24.4
2023-05-02T09:53:32.507Z,24.3
2023-05-02T09:54:34.272Z,24.5
2023-05-02T09:55:36.213Z,24.5
2023-05-02T09:56:37.781Z,24.5
2023-05-02T09:57:39.450Z,24.4
2023-05-02T09:58:41.076Z,24.3
2023-05-02T09:59:42.770Z,24.3
2023-05-02T10:00:44.359Z,24.2
2023-05-02T10:01:46.035Z,24.2
2023-05-02T10:02:47.884Z,24.2
2023-05-02T10:03:49.798Z,24.1
2023-05-02T10:04:51.654Z,24.1
2023-05-02T10:05:53.279Z,24.2
2023-05-02T10:06:54.856Z,24.2
2023-05-02T10:07:56.578Z,24.3
2023-05-02T10:08:58.305Z,24.2
2023-05-02T10:09:59.949Z,24.3
2023-05-02T10:11:01.722Z,24.2
2023-05-02T10:12:03.370Z,24.2
2023-05-02T10:13:05.129Z,24.1
2023-05-02T10:14:06.704Z,24.1
2023-05-02T10:15:08.350Z,24.1
2023-05-02T10:16:10.168Z,24.1
2023-05-02T10:17:11.902Z,24.1
2023-05-02T10:18:13.669Z,24
2023-05-02T10:19:15.574Z,23.9
2023-05-02T10:20:17.383Z,23.9
2023-05-02T10:21:19.406Z,24.1
2023-05-02T10:22:21.167Z,24
2023-05-02T10:23:23.004Z,23.9
2023-05-02T10:24:24.955Z,23.8
2023-05-02T10:25:26.692Z,23.8
2023-05-02T10:26:28.569Z,23.9
2023-05-02T10:27:30.613Z,23.8
2023-05-02T10:28:32.318Z,23.9
2023-05-02T10:29:33.937Z,23.9
2023-05-02T10:30:35.699Z,23.9
2023-05-02T10:31:37.724Z,23.9
2023-05-02T10:32:39.885Z,24
2023-05-02T10:33:41.814Z,24
2023-05-02T10:34:43.655Z,24
2023-05-02T10:35:45.318Z,24.1
2023-05-02T10:36:47.062Z,24
2023-05-02T10:37:48.934Z,23.9
2023-05-02T10:38:50.648Z,23.8
2023-05-02T10:39:52.514Z,24
2023-05-02T10:40:55.381Z,24
2023-05-02T10:41:57.212Z,24
2023-05-02T10:42:58.969Z,24.1
2023-05-02T10:44:00.785Z,24
2023-05-02T10:45:02.999Z,23.9
2023-05-02T10:46:05.305Z,23.9
2023-05-02T10:47:07.141Z,23.8
2023-05-02T10:48:09.165Z,23.8
2023-05-02T10:49:10.965Z,23.9
2023-05-02T10:50:12.653Z,23.9
2023-05-02T10:51:14.512Z,23.9
2023-05-02T10:52:16.227Z,23.8
2023-05-02T10:53:18.078Z,23.8
2023-05-02T10:54:19.915Z,23.8
2023-05-02T10:55:21.855Z,23.8
2023-05-02T10:56:23.746Z,23.8
2023-05-02T10:57:30.603Z,23.7
2023-05-02T10:58:32.511Z,23.7
2023-05-02T10:59:34.308Z,23.7
2023-05-02T11:00:36.274Z,23.7
2023-05-02T11:01:38.456Z,23.7
2023-05-02T11:02:40.282Z,23.8
2023-05-02T11:03:42.157Z,23.7
2023-05-02T11:04:44.068Z,23.6
2023-05-02T11:05:45.838Z,23.5
2023-05-02T11:06:47.700Z,23.6
2023-05-02T11:07:49.618Z,23.6
2023-05-02T11:08:51.322Z,23.6
2023-05-02T11:09:53.009Z,23.6
2023-05-02T11:10:54.659Z,23.6
2023-05-02T11:11:56.503Z,23.6
2023-05-02T11:12:58.357Z,23.6
2023-05-02T11:14:00.326Z,23.6
2023-05-02T11:15:02.795Z,23.6
2023-05-02T11:16:05.437Z,23.6
2023-05-02T11:17:07.459Z,23.6
2023-05-02T11:18:09.818Z,23.6
2023-05-02T11:19:11.712Z,23.6
2023-05-02T11:20:13.702Z,23.6
2023-05-02T11:21:15.612Z,23.6
2023-05-02T11:22:17.359Z,23.6
2023-05-02T11:23:19.518Z,23.6
2023-05-02T11:24:21.368Z,23.5
2023-05-02T11:25:23.316Z,23.5
2023-05-02T11:26:25.261Z,23.5
2023-05-02T11:27:27.019Z,23.5
2023-05-02T11:28:28.786Z,23.5
2023-05-02T11:29:30.578Z,23.6
2023-05-02T11:30:32.545Z,23.5
2023-05-02T11:31:34.444Z,23.5
2023-05-02T11:32:36.472Z,23.5
2023-05-02T11:33:38.418Z,23.5
2023-05-02T11:34:40.048Z,23.5
2023-05-02T11:35:41.683Z,23.4
2023-05-02T11:36:43.311Z,23.5
2023-05-02T11:37:44.992Z,23.4
2023-05-02T11:38:46.647Z,23.4
2023-05-02T11:39:48.404Z,23.6
2023-05-02T11:40:50.181Z,23.5
2023-05-02T11:41:52.006Z,23.6
2023-05-02T11:42:53.753Z,23.5
2023-05-02T11:43:55.903Z,23.5
2023-05-02T11:44:57.662Z,23.6
2023-05-02T11:46:01.171Z,23.5
2023-05-02T11:47:04.028Z,23.5
2023-05-02T11:48:06.202Z,23.3
2023-05-02T11:49:10.615Z,23.4
2023-05-02T11:50:16.207Z,23.3
2023-05-02T11:51:17.929Z,23.3
2023-05-02T11:52:19.781Z,23.3
2023-05-02T11:53:21.649Z,23.5
2023-05-02T11:54:23.299Z,23.3
2023-05-02T11:55:24.878Z,23.3
2023-05-02T11:56:26.521Z,23.4
2023-05-02T11:57:28.243Z,23.4
2023-05-02T11:58:30.201Z,23.2
2023-05-02T11:59:32.139Z,23.4
2023-05-02T12:00:33.835Z,23.4
2023-05-02T12:01:35.623Z,23.5
2023-05-02T12:02:37.725Z,23.4
2023-05-02T12:03:40.415Z,23.4
2023-05-02T12:04:42.714Z,23.4
2023-05-02T12:05:44.372Z,23.1
2023-05-02T12:06:46.303Z,23.2
2023-05-02T12:07:48.118Z,23
2023-05-02T12:08:50.027Z,23.1
2023-05-02T12:09:51.871Z,23.3
2023-05-02T12:10:53.590Z,23.3
2023-05-02T12:11:55.456Z,23.2
2023-05-02T12:12:57.317Z,23.3
2023-05-02T12:13:59.181Z,23.3
2023-05-02T12:15:01.550Z,23.2
2023-05-02T12:16:04.375Z,23.2
2023-05-02T12:17:06.362Z,23.4
2023-05-02T12:18:08.264Z,23.2
2023-05-02T12:19:10.329Z,23.3
2023-05-02T12:20:12.145Z,23.2
2023-05-02T12:21:13.800Z,23.3
2023-05-02T12:22:15.492Z,23.3
2023-05-02T12:23:17.149Z,23.2
2023-05-02T12:24:18.909Z,23.3
2023-05-02T12:25:20.752Z,23.3
2023-05-02T12:26:22.832Z,23.2
2023-05-02T12:27:24.556Z,23.1
2023-05-02T12:28:26.510Z,23.1
2023-05-02T12:29:28.560Z,23.2
2023-05-02T12:30:30.301Z,23.3
2023-05-02T12:31:32.407Z,23.2
2023-05-02T12:32:34.633Z,23.3
2023-05-02T12:33:36.470Z,23.2
2023-05-02T12:34:38.368Z,23.2
2023-05-02T12:35:40.189Z,23.2
2023-05-02T12:36:42.123Z,23.2
2023-05-02T12:37:45.625Z,23.2
2023-05-02T12:38:48.992Z,23.2
2023-05-02T12:39:51.163Z,23.2
2023-05-02T12:40:53.014Z,23.2
2023-05-02T12:41:54.958Z,23.1
2023-05-02T12:42:56.678Z,23.2
2023-05-02T12:43:58.428Z,23.3
2023-05-02T12:45:00.405Z,23.2
2023-05-02T12:46:02.348Z,23.1
2023-05-02T12:47:04.325Z,23.1
2023-05-02T12:48:06.287Z,23.2
2023-05-02T12:49:08.069Z,23.1
2023-05-02T12:50:10.113Z,23
2023-05-02T12:51:12.013Z,23.1
2023-05-02T12:52:13.867Z,23
2023-05-02T12:53:15.512Z,22.9
2023-05-02T12:54:17.371Z,22.9
2023-05-02T12:55:19.319Z,22.9
2023-05-02T12:56:21.063Z,22.9
2023-05-02T12:57:22.846Z,23
2023-05-02T12:58:24.661Z,23
2023-05-02T12:59:26.478Z,23
2023-05-02T13:00:28.256Z,23
2023-05-02T13:01:30.028Z,23
2023-05-02T13:02:32.108Z,23
2023-05-02T13:03:34.467Z,23
2023-05-02T13:04:36.614Z,23
2023-05-02T13:05:38.461Z,23
2023-05-02T13:06:40.341Z,22.9
2023-05-02T13:07:42.341Z,23
2023-05-02T13:08:44.199Z,22.9
2023-05-02T13:09:46.043Z,22.9
2023-05-02T13:10:47.875Z,22.9
2023-05-02T13:11:49.676Z,22.8
2023-05-02T13:12:51.282Z,22.8
2023-05-02T13:13:53.124Z,22.8
2023-05-02T13:14:55.117Z,22.9
2023-05-02T13:15:57.039Z,22.9
2023-05-02T13:16:59.177Z,22.8
2023-05-02T13:18:01.655Z,22.9
2023-05-02T13:19:04.318Z,22.9
2023-05-02T13:20:06.732Z,22.9
2023-05-02T13:21:09.591Z,22.8
2023-05-02T13:22:11.524Z,22.7
2023-05-02T13:23:13.461Z,22.7
2023-05-02T13:24:15.227Z,22.7
2023-05-02T13:25:17.061Z,22.7
2023-05-02T13:26:18.912Z,22.6
2023-05-02T13:27:20.764Z,22.6
2023-05-02T13:28:22.547Z,22.7
2023-05-02T13:29:24.226Z,22.8
2023-05-02T13:30:26.007Z,22.7
2023-05-02T13:31:28.026Z,22.6
2023-05-02T13:32:30.136Z,22.6
2023-05-02T13:33:32.084Z,22.6
2023-05-02T13:34:33.914Z,22.6
2023-05-02T13:35:35.760Z,22.7
2023-05-02T13:36:37.541Z,22.7
2023-05-02T13:37:39.464Z,22.8
2023-05-02T13:38:41.613Z,22.6
2023-05-02T13:39:43.678Z,22.7
2023-05-02T13:40:45.528Z,22.7
2023-05-02T13:41:47.346Z,22.7
2023-05-02T13:42:49.226Z,22.7
2023-05-02T13:43:51.184Z,22.7
2023-05-02T13:44:53.141Z,22.7
2023-05-02T13:45:55.003Z,22.7
2023-05-02T13:46:56.838Z,22.7
2023-05-02T13:47:58.815Z,22.6
2023-05-02T13:49:01.048Z,22.6